createdAt,value
2016-08-26T00:00:07.049Z,21.71
2016-08-26T00:01:06.321Z,21.74
2016-08-26T00:02:07.727Z,21.71
2016-08-26T00:03:06.309Z,21.71
2016-08-26T00:04:07.014Z,21.71
2016-08-26T00:05:06.298Z,21.76
2016-08-26T00:06:06.997Z,21.71
2016-08-26T00:07:06.278Z,21.66
2016-08-26T00:08:06.984Z,21.63
2016-08-26T00:09:06.981Z,21.6
2016-08-26T00:10:06.314Z,21.71
2016-08-26T00:11:06.961Z,21.64
2016-08-26T00:12:06.248Z,21.59
2016-08-26T00:13:06.953Z,21.61
2016-08-26T00:14:06.232Z,21.6
2016-08-26T00:15:06.935Z,21.57
2016-08-26T00:16:06.227Z,21.59
2016-08-26T00:17:06.921Z,21.67
2016-08-26T00:18:06.211Z,21.59
2016-08-26T00:19:06.201Z,21.69
2016-08-26T00:20:06.203Z,21.61
2016-08-26T00:21:06.188Z,21.59
2016-08-26T00:22:06.179Z,21.59
2016-08-26T00:23:06.178Z,21.56
2016-08-26T00:24:06.177Z,21.6
2016-08-26T00:25:06.171Z,21.59
2016-08-26T00:26:06.871Z,21.57
2016-08-26T00:27:06.859Z,21.5
2016-08-26T00:28:06.868Z,21.59
2016-08-26T00:29:06.141Z,21.54
2016-08-26T00:30:06.134Z,21.57
2016-08-26T00:31:06.135Z,21.6
2016-08-26T00:32:06.117Z,21.53
2016-08-26T00:33:06.833Z,21.56
2016-08-26T00:34:06.825Z,21.54
2016-08-26T00:35:06.102Z,21.51
2016-08-26T00:36:06.099Z,21.54
2016-08-26T00:37:06.083Z,21.5
2016-08-26T00:38:06.084Z,21.53
2016-08-26T00:39:06.076Z,21.39
2016-08-26T00:40:06.071Z,21.39
2016-08-26T00:41:06.061Z,21.45
2016-08-26T00:42:06.058Z,21.38
2016-08-26T00:43:07.470Z,21.45
2016-08-26T00:44:06.044Z,21.48
2016-08-26T00:45:06.037Z,21.39
2016-08-26T00:46:06.039Z,21.36
2016-08-26T00:47:06.019Z,21.26
2016-08-26T00:48:06.017Z,21.36
2016-08-26T00:49:06.015Z,21.27
2016-08-26T00:50:06.009Z,21.35
2016-08-26T00:51:05.998Z,21.34
2016-08-26T00:52:05.992Z,21.34
2016-08-26T00:53:05.987Z,21.27
2016-08-26T00:54:06.738Z,21.24
2016-08-26T00:55:06.676Z,21.26
2016-08-26T00:56:05.966Z,21.27
2016-08-26T00:57:05.963Z,21.26
2016-08-26T00:58:05.957Z,21.23
2016-08-26T00:59:05.947Z,21.21
2016-08-26T01:00:07.360Z,21.2
2016-08-26T01:01:05.950Z,21.26
2016-08-26T01:02:06.638Z,21.17
2016-08-26T01:03:05.923Z,21.11
2016-08-26T01:04:05.916Z,21.13
2016-08-26T01:05:05.904Z,21.09
2016-08-26T01:06:05.904Z,21.09
2016-08-26T01:07:06.599Z,21.11
2016-08-26T01:08:05.895Z,21.13
2016-08-26T01:09:05.881Z,21.11
2016-08-26T01:10:05.874Z,21.08
2016-08-26T01:11:05.875Z,21.21
2016-08-26T01:12:05.858Z,21.17
2016-08-26T01:13:06.563Z,21.05
2016-08-26T01:14:05.849Z,21.11
2016-08-26T01:15:05.838Z,21.08
2016-08-26T01:16:05.835Z,21.14
2016-08-26T01:17:05.827Z,21.06
2016-08-26T01:18:05.822Z,21.14
2016-08-26T01:19:05.817Z,21.08
2016-08-26T01:20:06.561Z,21.06
2016-08-26T01:21:05.799Z,21.08
2016-08-26T01:22:05.796Z,21.13
2016-08-26T01:23:05.793Z,21.13
2016-08-26T01:24:07.199Z,21.11
2016-08-26T01:25:05.777Z,21.02
2016-08-26T01:26:06.480Z,21.06
2016-08-26T01:27:06.466Z,21.04
2016-08-26T01:28:05.751Z,20.99
2016-08-26T01:29:05.747Z,20.98
2016-08-26T01:30:05.737Z,20.99
2016-08-26T01:31:06.445Z,21.04
2016-08-26T01:32:05.729Z,21.05
2016-08-26T01:33:05.727Z,21.02
2016-08-26T01:34:05.723Z,20.96
2016-08-26T01:35:06.415Z,21.01
2016-08-26T01:36:06.406Z,21.01
2016-08-26T01:37:05.694Z,20.93
2016-08-26T01:38:05.685Z,20.96
2016-08-26T01:39:05.677Z,20.99
2016-08-26T01:40:05.672Z,20.95
2016-08-26T01:41:05.668Z,20.96
2016-08-26T01:42:05.659Z,20.96
2016-08-26T01:43:06.357Z,20.96
2016-08-26T01:44:05.643Z,20.9
2016-08-26T01:45:05.637Z,20.91
2016-08-26T01:46:05.638Z,20.95
2016-08-26T01:47:05.627Z,20.95
2016-08-26T01:48:05.629Z,20.95
2016-08-26T01:49:05.619Z,20.9
2016-08-26T01:50:05.603Z,20.95
2016-08-26T01:51:05.598Z,20.9
2016-08-26T01:52:05.592Z,20.91
2016-08-26T01:53:06.294Z,20.98
2016-08-26T01:54:06.291Z,20.91
2016-08-26T01:55:05.566Z,20.89
2016-08-26T01:56:05.575Z,20.91
2016-08-26T01:57:05.763Z,20.91
2016-08-26T01:58:05.552Z,20.95
2016-08-26T01:59:05.547Z,20.91
2016-08-26T02:00:06.242Z,20.91
2016-08-26T02:01:05.534Z,20.9
2016-08-26T02:02:05.526Z,20.91
2016-08-26T02:03:06.226Z,20.93
2016-08-26T02:04:05.510Z,20.95
2016-08-26T02:05:06.210Z,20.86
2016-08-26T02:06:05.511Z,20.86
2016-08-26T02:07:05.496Z,20.91
2016-08-26T02:08:05.486Z,20.93
2016-08-26T02:09:06.188Z,20.91
2016-08-26T02:10:06.176Z,20.99
2016-08-26T02:11:05.471Z,20.93
2016-08-26T02:12:06.168Z,20.93
2016-08-26T02:13:05.451Z,20.93
2016-08-26T02:14:06.203Z,20.9
2016-08-26T02:15:05.437Z,20.79
2016-08-26T02:16:05.428Z,20.91
2016-08-26T02:17:05.426Z,20.91
2016-08-26T02:18:05.425Z,20.89
2016-08-26T02:19:05.413Z,20.86
2016-08-26T02:20:05.399Z,20.83
2016-08-26T02:21:05.401Z,20.81
2016-08-26T02:22:06.103Z,20.8
2016-08-26T02:23:05.391Z,20.84
2016-08-26T02:24:05.378Z,20.9
2016-08-26T02:25:06.075Z,20.84
2016-08-26T02:26:06.121Z,20.89
2016-08-26T02:27:06.063Z,20.89
2016-08-26T02:28:06.765Z,20.87
2016-08-26T02:29:05.344Z,20.79
2016-08-26T02:30:05.333Z,20.77
2016-08-26T02:31:05.334Z,20.8
2016-08-26T02:32:05.321Z,20.76
2016-08-26T02:33:06.031Z,20.68
2016-08-26T02:34:05.312Z,20.83
2016-08-26T02:35:05.302Z,20.69
2016-08-26T02:36:05.296Z,20.8
2016-08-26T02:37:06.014Z,20.79
2016-08-26T02:38:05.302Z,20.72
2016-08-26T02:39:05.280Z,20.81
2016-08-26T02:40:05.316Z,20.68
2016-08-26T02:41:05.262Z,20.8
2016-08-26T02:42:05.309Z,20.72
2016-08-26T02:43:05.255Z,20.72
2016-08-26T02:44:05.252Z,20.72
2016-08-26T02:45:05.231Z,20.71
2016-08-26T02:46:05.225Z,20.69
2016-08-26T02:47:05.221Z,20.79
2016-08-26T02:48:05.214Z,20.74
2016-08-26T02:49:05.205Z,20.77
2016-08-26T02:50:05.199Z,20.77
2016-08-26T02:51:05.196Z,20.69
2016-08-26T02:52:05.188Z,20.62
2016-08-26T02:53:05.888Z,20.69
2016-08-26T02:54:05.176Z,20.71
2016-08-26T02:55:05.164Z,20.68
2016-08-26T02:56:05.155Z,20.74
2016-08-26T02:57:05.151Z,20.69
2016-08-26T02:58:05.145Z,20.71
2016-08-26T02:59:05.146Z,20.69
2016-08-26T03:00:05.131Z,20.72
2016-08-26T03:01:05.127Z,20.68
2016-08-26T03:02:05.119Z,20.64
2016-08-26T03:03:06.616Z,20.62
2016-08-26T03:04:05.108Z,20.66
2016-08-26T03:05:05.805Z,20.66
2016-08-26T03:06:05.090Z,20.56
2016-08-26T03:07:05.789Z,20.59
2016-08-26T03:08:05.071Z,20.56
2016-08-26T03:09:05.777Z,20.58
2016-08-26T03:10:05.064Z,20.59
2016-08-26T03:11:05.061Z,20.56
2016-08-26T03:12:05.046Z,20.54
2016-08-26T03:13:05.040Z,20.49
2016-08-26T03:14:05.738Z,20.51
2016-08-26T03:15:05.732Z,20.46
2016-08-26T03:16:05.036Z,20.46
2016-08-26T03:17:05.019Z,20.47
2016-08-26T03:18:05.711Z,20.46
2016-08-26T03:19:05.000Z,20.47
2016-08-26T03:20:04.991Z,20.41
2016-08-26T03:21:04.987Z,20.49
2016-08-26T03:22:04.978Z,20.43
2016-08-26T03:23:04.971Z,20.51
2016-08-26T03:24:04.965Z,20.46
2016-08-26T03:25:04.957Z,20.42
2016-08-26T03:26:04.947Z,20.43
2016-08-26T03:27:04.946Z,20.41
2016-08-26T03:28:04.935Z,20.49
2016-08-26T03:29:05.646Z,20.5
2016-08-26T03:30:04.925Z,20.58
2016-08-26T03:31:04.919Z,20.51
2016-08-26T03:32:04.929Z,20.51
2016-08-26T03:33:04.943Z,20.5
2016-08-26T03:34:04.900Z,20.5
2016-08-26T03:35:04.892Z,20.46
2016-08-26T03:36:04.880Z,20.49
2016-08-26T03:37:04.870Z,20.47
2016-08-26T03:38:04.862Z,20.42
2016-08-26T03:39:04.866Z,20.42
2016-08-26T03:40:04.849Z,20.41
2016-08-26T03:41:05.551Z,20.38
2016-08-26T03:42:04.842Z,20.43
2016-08-26T03:43:04.853Z,20.43
2016-08-26T03:44:04.821Z,20.43
2016-08-26T03:45:04.820Z,20.46
2016-08-26T03:46:04.812Z,20.31
2016-08-26T03:47:04.805Z,20.27
2016-08-26T03:48:04.801Z,20.3
2016-08-26T03:49:04.809Z,20.28
2016-08-26T03:50:04.789Z,20.27
2016-08-26T03:51:04.775Z,20.23
2016-08-26T03:52:04.770Z,20.23
2016-08-26T03:53:04.756Z,20.21
2016-08-26T03:54:04.759Z,20.15
2016-08-26T03:55:05.454Z,20.09
2016-08-26T03:56:04.751Z,20.08
2016-08-26T03:57:04.940Z,20.13
2016-08-26T03:58:04.720Z,20.15
2016-08-26T03:59:04.722Z,20.2
2016-08-26T04:00:06.130Z,20.06
2016-08-26T04:01:04.720Z,20.09
2016-08-26T04:02:04.697Z,20.05
2016-08-26T04:03:04.688Z,20.08
2016-08-26T04:04:04.698Z,20.08
2016-08-26T04:05:04.734Z,20.08
2016-08-26T04:06:04.674Z,20.09
2016-08-26T04:07:05.372Z,20.08
2016-08-26T04:08:04.656Z,19.98
2016-08-26T04:09:04.661Z,20.02
2016-08-26T04:10:06.261Z,19.98
2016-08-26T04:11:04.643Z,19.98
2016-08-26T04:12:04.633Z,19.94
2016-08-26T04:13:04.622Z,19.98
2016-08-26T04:14:06.030Z,19.94
2016-08-26T04:15:05.311Z,19.97
2016-08-26T04:16:04.596Z,19.94
2016-08-26T04:17:04.592Z,19.98
2016-08-26T04:18:04.584Z,19.91
2016-08-26T04:19:04.575Z,19.98
2016-08-26T04:20:04.567Z,19.97
2016-08-26T04:21:04.556Z,19.98
2016-08-26T04:22:04.555Z,19.94
2016-08-26T04:23:04.550Z,19.88
2016-08-26T04:24:04.539Z,20.02
2016-08-26T04:25:04.532Z,19.91
2016-08-26T04:26:04.520Z,19.91
2016-08-26T04:27:04.515Z,19.93
2016-08-26T04:28:05.218Z,19.88
2016-08-26T04:29:04.501Z,19.86
2016-08-26T04:30:04.499Z,19.86
2016-08-26T04:31:04.489Z,19.84
2016-08-26T04:32:05.203Z,19.88
2016-08-26T04:33:04.477Z,19.87
2016-08-26T04:34:04.463Z,19.79
2016-08-26T04:35:04.460Z,19.76
2016-08-26T04:36:04.448Z,19.79
2016-08-26T04:37:04.448Z,19.76
2016-08-26T04:38:05.140Z,19.8
2016-08-26T04:39:04.465Z,19.79
2016-08-26T04:40:04.443Z,19.83
2016-08-26T04:41:05.130Z,19.8
2016-08-26T04:42:04.414Z,19.8
2016-08-26T04:43:05.112Z,19.86
2016-08-26T04:44:04.396Z,19.8
2016-08-26T04:45:04.389Z,19.79
2016-08-26T04:46:05.092Z,19.79
2016-08-26T04:47:04.372Z,19.78
2016-08-26T04:48:04.375Z,19.8
2016-08-26T04:49:05.068Z,19.75
2016-08-26T04:50:04.357Z,19.73
2016-08-26T04:51:05.055Z,19.7
2016-08-26T04:52:04.340Z,19.7
2016-08-26T04:53:05.039Z,19.78
2016-08-26T04:54:04.324Z,19.79
2016-08-26T04:55:04.318Z,19.79
2016-08-26T04:56:04.325Z,19.72
2016-08-26T04:57:04.312Z,19.7
2016-08-26T04:58:04.298Z,19.8
2016-08-26T04:59:04.288Z,19.83
2016-08-26T05:00:04.279Z,19.76
2016-08-26T05:01:04.279Z,19.76
2016-08-26T05:02:04.971Z,19.78
2016-08-26T05:03:04.969Z,19.84
2016-08-26T05:04:04.963Z,19.76
2016-08-26T05:05:04.243Z,19.84
2016-08-26T05:06:04.946Z,19.83
2016-08-26T05:07:04.225Z,19.79
2016-08-26T05:08:04.219Z,19.83
2016-08-26T05:09:04.222Z,19.83
2016-08-26T05:10:04.209Z,19.8
2016-08-26T05:11:05.610Z,19.79
2016-08-26T05:12:04.190Z,19.78
2016-08-26T05:13:04.183Z,19.76
2016-08-26T05:14:04.177Z,19.76
2016-08-26T05:15:05.584Z,19.76
2016-08-26T05:16:04.872Z,19.76
2016-08-26T05:17:04.156Z,19.8
2016-08-26T05:18:04.153Z,19.78
2016-08-26T05:19:04.139Z,19.75
2016-08-26T05:20:04.128Z,19.78
2016-08-26T05:21:04.129Z,19.8
2016-08-26T05:22:04.115Z,19.8
2016-08-26T05:23:04.110Z,19.75
2016-08-26T05:24:04.106Z,19.76
2016-08-26T05:25:04.802Z,19.75
2016-08-26T05:26:04.088Z,19.87
2016-08-26T05:27:04.795Z,19.8
2016-08-26T05:28:04.073Z,19.91
2016-08-26T05:29:04.068Z,19.87
2016-08-26T05:30:04.060Z,19.91
2016-08-26T05:31:04.109Z,19.93
2016-08-26T05:32:04.756Z,19.97
2016-08-26T05:33:04.038Z,19.97
2016-08-26T05:34:04.029Z,19.98
2016-08-26T05:35:04.728Z,20.02
2016-08-26T05:36:04.012Z,20.06
2016-08-26T05:37:04.015Z,20.06
2016-08-26T05:38:04.003Z,20.1
2016-08-26T05:39:03.990Z,20.18
2016-08-26T05:40:04.695Z,20.12
2016-08-26T05:41:03.982Z,20.13
2016-08-26T05:42:04.679Z,20.2
2016-08-26T05:43:03.963Z,20.21
2016-08-26T05:44:04.666Z,20.25
2016-08-26T05:45:03.955Z,20.24
2016-08-26T05:46:04.650Z,20.24
2016-08-26T05:47:04.641Z,20.27
2016-08-26T05:48:04.637Z,20.3
2016-08-26T05:49:03.925Z,20.3
2016-08-26T05:50:04.636Z,20.39
2016-08-26T05:51:03.917Z,20.38
2016-08-26T05:52:03.897Z,20.38
2016-08-26T05:53:03.888Z,20.41
2016-08-26T05:54:03.887Z,20.42
2016-08-26T05:55:03.880Z,20.41
2016-08-26T05:56:03.868Z,20.5
2016-08-26T05:57:04.073Z,20.5
2016-08-26T05:58:03.857Z,20.53
2016-08-26T05:59:03.851Z,20.62
2016-08-26T06:00:04.557Z,20.59
2016-08-26T06:01:03.832Z,20.66
2016-08-26T06:02:04.538Z,20.66
2016-08-26T06:03:03.822Z,20.68
2016-08-26T06:04:03.815Z,20.8
2016-08-26T06:05:04.582Z,20.72
2016-08-26T06:06:04.529Z,20.9
2016-08-26T06:07:03.802Z,20.91
2016-08-26T06:08:03.793Z,20.83
2016-08-26T06:09:04.486Z,20.87
2016-08-26T06:10:04.532Z,21.02
2016-08-26T06:11:03.764Z,20.96
2016-08-26T06:12:04.462Z,21.01
2016-08-26T06:13:04.467Z,21.13
2016-08-26T06:14:05.167Z,21.13
2016-08-26T06:15:03.734Z,21.23
2016-08-26T06:16:03.733Z,21.26
2016-08-26T06:17:03.735Z,21.35
2016-08-26T06:18:03.718Z,21.27
2016-08-26T06:19:03.719Z,21.41
2016-08-26T06:20:03.710Z,21.5
2016-08-26T06:21:03.705Z,21.53
2016-08-26T06:22:04.400Z,21.54
2016-08-26T06:23:04.396Z,21.64
2016-08-26T06:24:03.679Z,21.61
2016-08-26T06:25:03.672Z,21.63
2016-08-26T06:26:03.662Z,21.69
2016-08-26T06:27:03.713Z,21.75
2016-08-26T06:28:03.661Z,21.71
2016-08-26T06:29:05.058Z,21.82
2016-08-26T06:30:05.059Z,21.91
2016-08-26T06:31:03.636Z,21.94
2016-08-26T06:32:03.626Z,21.98
2016-08-26T06:33:03.618Z,22.07
2016-08-26T06:34:03.609Z,22.09
2016-08-26T06:35:04.402Z,22.27
2016-08-26T06:36:03.599Z,22.29
2016-08-26T06:37:04.299Z,22.32
2016-08-26T06:38:03.587Z,22.46
2016-08-26T06:39:04.286Z,22.44
2016-08-26T06:40:03.577Z,22.65
2016-08-26T06:41:03.570Z,22.57
2016-08-26T06:42:03.574Z,22.69
2016-08-26T06:43:03.565Z,22.78
2016-08-26T06:44:03.561Z,22.82
2016-08-26T06:45:03.568Z,22.92
2016-08-26T06:46:03.542Z,22.97
2016-08-26T06:47:03.543Z,23.05
2016-08-26T06:48:03.582Z,23.04
2016-08-26T06:49:04.225Z,23.14
2016-08-26T06:50:04.229Z,23.15
2016-08-26T06:51:03.502Z,23.27
2016-08-26T06:52:04.207Z,23.34
2016-08-26T06:53:03.495Z,23.42
2016-08-26T06:54:03.539Z,23.53
2016-08-26T06:55:03.480Z,23.55
2016-08-26T06:56:04.194Z,23.57
2016-08-26T06:57:04.176Z,23.67
2016-08-26T06:58:03.467Z,23.8
2016-08-26T06:59:03.458Z,23.76
2016-08-26T07:00:03.469Z,23.8
2016-08-26T07:01:03.444Z,23.94
2016-08-26T07:02:04.162Z,24.04
2016-08-26T07:03:04.143Z,24.04
2016-08-26T07:04:03.439Z,24.13
2016-08-26T07:05:03.430Z,24.16
2016-08-26T07:06:03.441Z,24.22
2016-08-26T07:07:04.133Z,24.35
2016-08-26T07:08:03.404Z,24.31
2016-08-26T07:09:03.407Z,24.45
2016-08-26T07:10:04.107Z,24.52
2016-08-26T07:11:04.097Z,24.6
2016-08-26T07:12:04.156Z,24.6
2016-08-26T07:13:03.384Z,24.87
2016-08-26T07:14:04.094Z,25.01
2016-08-26T07:15:04.076Z,25.05
2016-08-26T07:16:03.386Z,25.13
2016-08-26T07:17:03.353Z,25.31
2016-08-26T07:18:03.354Z,25.32
2016-08-26T07:19:04.051Z,25.37
2016-08-26T07:20:03.351Z,25.42
2016-08-26T07:21:03.333Z,25.42
2016-08-26T07:22:04.051Z,25.38
2016-08-26T07:23:03.325Z,25.54
2016-08-26T07:24:04.021Z,25.61
2016-08-26T07:25:03.311Z,25.79
2016-08-26T07:26:03.314Z,25.79
2016-08-26T07:27:03.295Z,25.83
2016-08-26T07:28:03.318Z,25.94
2016-08-26T07:29:03.287Z,25.9
2016-08-26T07:30:03.279Z,26.02
2016-08-26T07:31:03.280Z,26.01
2016-08-26T07:32:03.268Z,26.08
2016-08-26T07:33:03.269Z,26.09
2016-08-26T07:34:03.259Z,26.25
2016-08-26T07:35:03.259Z,26.35
2016-08-26T07:36:03.259Z,26.44
2016-08-26T07:37:03.244Z,26.46
2016-08-26T07:38:03.243Z,26.58
2016-08-26T07:39:03.941Z,26.59
2016-08-26T07:40:03.227Z,26.59
2016-08-26T07:41:03.225Z,26.64
2016-08-26T07:42:03.220Z,26.69
2016-08-26T07:43:03.924Z,26.77
2016-08-26T07:44:03.209Z,26.74
2016-08-26T07:45:03.209Z,26.72
2016-08-26T07:46:03.215Z,26.73
2016-08-26T07:47:03.195Z,26.86
2016-08-26T07:48:03.898Z,26.94
2016-08-26T07:49:03.180Z,26.92
2016-08-26T07:50:03.181Z,27.06
2016-08-26T07:51:03.878Z,27.06
2016-08-26T07:52:03.878Z,27.16
2016-08-26T07:53:03.167Z,27.2
2016-08-26T07:54:03.862Z,27.17
2016-08-26T07:55:03.153Z,27.23
2016-08-26T07:56:03.153Z,27.24
2016-08-26T07:57:04.807Z,27.23
2016-08-26T07:58:03.186Z,27.35
2016-08-26T07:59:03.144Z,27.35
2016-08-26T08:00:03.128Z,27.48
2016-08-26T08:01:03.835Z,27.43
2016-08-26T08:02:03.119Z,27.5
2016-08-26T08:03:03.868Z,27.48
2016-08-26T08:04:03.108Z,27.62
2016-08-26T08:05:03.861Z,27.62
2016-08-26T08:06:03.098Z,27.64
2016-08-26T08:07:03.809Z,27.64
2016-08-26T08:08:03.092Z,27.7
2016-08-26T08:09:03.081Z,27.71
2016-08-26T08:10:03.078Z,27.79
2016-08-26T08:11:03.788Z,27.88
2016-08-26T08:12:03.073Z,27.89
2016-08-26T08:13:03.066Z,27.98
2016-08-26T08:14:03.093Z,28.04
2016-08-26T08:15:03.770Z,28.17
2016-08-26T08:16:03.054Z,28.31
2016-08-26T08:17:03.044Z,28.41
2016-08-26T08:18:03.040Z,28.75
2016-08-26T08:19:03.745Z,28.9
2016-08-26T08:20:03.033Z,28.95
2016-08-26T08:21:03.235Z,29.07
2016-08-26T08:22:04.437Z,29.15
2016-08-26T08:23:03.022Z,29.07
2016-08-26T08:24:03.019Z,29.1
2016-08-26T08:25:03.018Z,29.04
2016-08-26T08:26:03.005Z,29.04
2016-08-26T08:27:03.010Z,29.13
2016-08-26T08:28:03.003Z,29.37
2016-08-26T08:29:03.004Z,29.53
2016-08-26T08:30:02.997Z,29.9
2016-08-26T08:31:04.417Z,30.16
2016-08-26T08:32:03.691Z,30.65
2016-08-26T08:33:02.982Z,31.17
2016-08-26T08:34:03.685Z,31.43
2016-08-26T08:35:02.974Z,31.61
2016-08-26T08:36:03.675Z,31.58
2016-08-26T08:37:02.970Z,31.57
2016-08-26T08:38:02.963Z,31.55
2016-08-26T08:39:03.668Z,31.27
2016-08-26T08:40:02.956Z,31.18
2016-08-26T08:41:03.657Z,31.11
2016-08-26T08:42:02.949Z,31.11
2016-08-26T08:43:03.000Z,31.12
2016-08-26T08:44:02.944Z,31.04
2016-08-26T08:45:03.706Z,30.87
2016-08-26T08:46:02.940Z,30.67
2016-08-26T08:47:04.351Z,30.49
2016-08-26T08:48:03.654Z,30.4
2016-08-26T08:49:02.930Z,30.33
2016-08-26T08:50:02.929Z,30.23
2016-08-26T08:51:02.932Z,30.18
2016-08-26T08:52:02.918Z,30.18
2016-08-26T08:53:02.927Z,29.97
2016-08-26T08:54:02.930Z,29.96
2016-08-26T08:55:02.912Z,29.96
2016-08-26T08:56:02.908Z,29.96
2016-08-26T08:57:04.321Z,29.97
2016-08-26T08:58:02.895Z,29.9
2016-08-26T08:59:02.896Z,29.77
2016-08-26T09:00:02.897Z,29.74
2016-08-26T09:01:02.887Z,29.66
2016-08-26T09:02:02.888Z,29.59
2016-08-26T09:03:02.883Z,29.59
2016-08-26T09:04:02.881Z,29.6
2016-08-26T09:05:02.875Z,29.62
2016-08-26T09:06:02.867Z,29.55
2016-08-26T09:07:02.869Z,29.59
2016-08-26T09:08:02.861Z,29.84
2016-08-26T09:09:02.856Z,29.99
2016-08-26T09:10:02.850Z,30.03
2016-08-26T09:11:02.851Z,30.16
2016-08-26T09:12:02.846Z,30.19
2016-08-26T09:13:02.841Z,30.27
2016-08-26T09:14:02.843Z,30.29
2016-08-26T09:15:02.837Z,30.3
2016-08-26T09:16:02.829Z,30.14
2016-08-26T09:17:02.840Z,30.05
2016-08-26T09:18:02.828Z,30
2016-08-26T09:19:02.820Z,30.02
2016-08-26T09:20:02.832Z,29.96
2016-08-26T09:21:02.823Z,29.89
2016-08-26T09:22:03.522Z,29.97
2016-08-26T09:23:02.811Z,29.89
2016-08-26T09:24:02.807Z,29.97
2016-08-26T09:25:02.801Z,30.26
2016-08-26T09:26:02.804Z,30.8
2016-08-26T09:27:02.793Z,30.98
2016-08-26T09:28:02.791Z,31.13
2016-08-26T09:29:02.793Z,31.04
2016-08-26T09:30:02.788Z,31.11
2016-08-26T09:31:02.785Z,31.12
2016-08-26T09:32:02.801Z,30.96
2016-08-26T09:33:02.770Z,30.74
2016-08-26T09:34:02.768Z,30.62
2016-08-26T09:35:02.768Z,30.65
2016-08-26T09:36:02.812Z,30.64
2016-08-26T09:37:03.465Z,30.57
2016-08-26T09:38:02.757Z,30.54
2016-08-26T09:39:02.754Z,30.53
2016-08-26T09:40:02.748Z,30.46
2016-08-26T09:41:03.454Z,30.4
2016-08-26T09:42:02.748Z,30.4
2016-08-26T09:43:02.734Z,30.4
2016-08-26T09:44:02.732Z,30.4
2016-08-26T09:45:02.736Z,30.43
2016-08-26T09:46:02.726Z,30.4
2016-08-26T09:47:02.744Z,30.46
2016-08-26T09:48:02.717Z,30.38
2016-08-26T09:49:02.713Z,30.37
2016-08-26T09:50:02.712Z,30.43
2016-08-26T09:51:02.704Z,30.47
2016-08-26T09:52:02.709Z,30.46
2016-08-26T09:53:02.698Z,30.54
2016-08-26T09:54:03.426Z,30.53
2016-08-26T09:55:02.692Z,30.5
2016-08-26T09:56:02.694Z,30.56
2016-08-26T09:57:03.609Z,30.47
2016-08-26T09:58:03.392Z,30.37
2016-08-26T09:59:02.682Z,30.38
2016-08-26T10:00:02.686Z,30.43
2016-08-26T10:01:02.677Z,30.36
2016-08-26T10:02:02.670Z,30.4
2016-08-26T10:03:02.666Z,30.38
2016-08-26T10:04:02.667Z,30.46
2016-08-26T10:05:02.661Z,30.43
2016-08-26T10:06:02.669Z,30.3
2016-08-26T10:07:03.358Z,30.36
2016-08-26T10:08:02.654Z,30.4
2016-08-26T10:09:02.647Z,30.49
2016-08-26T10:10:03.351Z,30.53
2016-08-26T10:11:02.641Z,30.61
2016-08-26T10:12:02.634Z,30.57
2016-08-26T10:13:02.636Z,30.64
2016-08-26T10:14:02.633Z,30.67
2016-08-26T10:15:03.333Z,30.75
2016-08-26T10:16:02.621Z,30.81
2016-08-26T10:17:03.320Z,30.71
2016-08-26T10:18:02.615Z,30.75
2016-08-26T10:19:02.610Z,30.71
2016-08-26T10:20:04.047Z,30.75
2016-08-26T10:21:04.023Z,30.87
2016-08-26T10:22:02.600Z,30.98
2016-08-26T10:23:03.302Z,31.06
2016-08-26T10:24:03.301Z,31.15
2016-08-26T10:25:03.361Z,31.26
2016-08-26T10:26:02.589Z,31.13
2016-08-26T10:27:02.585Z,31.08
2016-08-26T10:28:03.292Z,31.15
2016-08-26T10:29:02.576Z,31.2
2016-08-26T10:30:03.282Z,31.24
2016-08-26T10:31:02.583Z,31.3
2016-08-26T10:32:02.564Z,31.2
2016-08-26T10:33:03.272Z,31.21
2016-08-26T10:34:02.559Z,31.21
2016-08-26T10:35:02.552Z,31.24
2016-08-26T10:36:02.569Z,31.31
2016-08-26T10:37:02.547Z,31.49
2016-08-26T10:38:02.544Z,31.55
2016-08-26T10:39:02.596Z,31.72
2016-08-26T10:40:02.548Z,32
2016-08-26T10:41:02.539Z,32.18
2016-08-26T10:42:03.952Z,32.24
2016-08-26T10:43:02.531Z,32.33
2016-08-26T10:44:02.527Z,32.35
2016-08-26T10:45:02.526Z,32.25
2016-08-26T10:46:02.526Z,32.24
2016-08-26T10:47:02.520Z,32.17
2016-08-26T10:48:02.519Z,31.96
2016-08-26T10:49:02.516Z,31.87
2016-08-26T10:50:02.515Z,31.87
2016-08-26T10:51:02.509Z,31.72
2016-08-26T10:52:02.522Z,31.67
2016-08-26T10:53:02.507Z,31.73
2016-08-26T10:54:02.502Z,31.75
2016-08-26T10:55:02.498Z,31.91
2016-08-26T10:56:02.499Z,31.93
2016-08-26T10:57:02.496Z,31.88
2016-08-26T10:58:02.493Z,31.92
2016-08-26T10:59:02.488Z,31.84
2016-08-26T11:00:02.487Z,31.87
2016-08-26T11:01:02.490Z,32
2016-08-26T11:02:03.193Z,32.15
2016-08-26T11:03:02.481Z,32.4
2016-08-26T11:04:02.481Z,32.55
2016-08-26T11:05:03.235Z,32.71
2016-08-26T11:06:02.490Z,32.74
2016-08-26T11:07:02.492Z,32.84
2016-08-26T11:08:02.478Z,32.85
2016-08-26T11:09:02.474Z,32.81
2016-08-26T11:10:02.471Z,32.85
2016-08-26T11:11:02.470Z,33.06
2016-08-26T11:12:02.470Z,33.3
2016-08-26T11:13:02.468Z,33.52
2016-08-26T11:14:02.472Z,33.92
2016-08-26T11:15:03.177Z,34.2
2016-08-26T11:16:03.212Z,34.51
2016-08-26T11:17:03.890Z,34.77
2016-08-26T11:18:02.476Z,34.96
2016-08-26T11:19:03.190Z,35.32
2016-08-26T11:20:02.486Z,35.69
2016-08-26T11:21:02.476Z,35.77
2016-08-26T11:22:03.194Z,35.81
2016-08-26T11:23:03.899Z,35.95
2016-08-26T11:24:02.486Z,36.24
2016-08-26T11:25:02.488Z,36.45
2016-08-26T11:26:02.493Z,36.46
2016-08-26T11:27:02.494Z,36.6
2016-08-26T11:28:02.502Z,36.57
2016-08-26T11:29:03.217Z,36.52
2016-08-26T11:30:03.215Z,36.77
2016-08-26T11:31:02.714Z,36.97
2016-08-26T11:32:02.515Z,37.07
2016-08-26T11:33:02.517Z,37.28
2016-08-26T11:34:03.231Z,37.41
2016-08-26T11:35:02.527Z,37.46
2016-08-26T11:36:03.957Z,37.58
2016-08-26T11:37:03.969Z,37.7
2016-08-26T11:38:02.546Z,37.7
2016-08-26T11:39:03.253Z,37.67
2016-08-26T11:40:03.272Z,37.77
2016-08-26T11:41:02.558Z,37.9
2016-08-26T11:42:02.558Z,37.85
2016-08-26T11:43:02.562Z,37.89
2016-08-26T11:44:02.569Z,38.1
2016-08-26T11:45:02.576Z,38.15
2016-08-26T11:46:02.579Z,38.36
2016-08-26T11:47:03.293Z,38.45
2016-08-26T11:48:02.589Z,38.66
2016-08-26T11:49:02.591Z,38.82
2016-08-26T11:50:03.315Z,38.98
2016-08-26T11:51:02.604Z,38.99
2016-08-26T11:52:02.611Z,39.05
2016-08-26T11:53:03.343Z,39.09
2016-08-26T11:54:02.626Z,39.03
2016-08-26T11:55:02.626Z,39.17
2016-08-26T11:56:02.643Z,39.18
2016-08-26T11:57:02.654Z,39.47
2016-08-26T11:58:02.649Z,39.59
2016-08-26T11:59:03.377Z,39.73
2016-08-26T12:00:02.672Z,39.93
2016-08-26T12:01:02.669Z,40.11
2016-08-26T12:02:02.680Z,40.18
2016-08-26T12:03:02.682Z,40.38
2016-08-26T12:04:02.686Z,40.59
2016-08-26T12:05:02.705Z,40.56
2016-08-26T12:06:02.706Z,40.61
2016-08-26T12:07:02.720Z,40.68
2016-08-26T12:08:02.716Z,40.8
2016-08-26T12:09:02.730Z,40.98
2016-08-26T12:10:03.439Z,41.15
2016-08-26T12:11:02.739Z,41.15
2016-08-26T12:12:02.756Z,41.31
2016-08-26T12:13:02.761Z,41.43
2016-08-26T12:14:02.768Z,41.7
2016-08-26T12:15:03.472Z,41.77
2016-08-26T12:16:04.211Z,41.82
2016-08-26T12:17:03.495Z,41.71
2016-08-26T12:18:02.805Z,41.75
2016-08-26T12:19:02.807Z,41.82
2016-08-26T12:20:03.514Z,41.75
2016-08-26T12:21:02.834Z,41.93
2016-08-26T12:22:02.821Z,42.05
2016-08-26T12:23:02.828Z,41.97
2016-08-26T12:24:02.837Z,42.09
2016-08-26T12:25:03.565Z,42.13
2016-08-26T12:26:02.868Z,42.15
2016-08-26T12:27:03.577Z,41.86
2016-08-26T12:28:02.882Z,41.88
2016-08-26T12:29:03.596Z,41.73
2016-08-26T12:30:03.611Z,41.52
2016-08-26T12:31:03.602Z,41.49
2016-08-26T12:32:02.911Z,41.56
2016-08-26T12:33:02.917Z,41.71
2016-08-26T12:34:03.625Z,41.62
2016-08-26T12:35:03.652Z,41.86
2016-08-26T12:36:03.665Z,42.13
2016-08-26T12:37:02.958Z,41.9
2016-08-26T12:38:03.671Z,41.86
2016-08-26T12:39:03.670Z,41.82
2016-08-26T12:40:02.985Z,41.77
2016-08-26T12:41:02.970Z,41.78
2016-08-26T12:42:02.977Z,41.78
2016-08-26T12:43:02.996Z,41.85
2016-08-26T12:44:03.707Z,41.62
2016-08-26T12:45:03.006Z,41.36
2016-08-26T12:46:03.008Z,41.31
2016-08-26T12:47:03.726Z,41.58
2016-08-26T12:48:03.023Z,41.63
2016-08-26T12:49:03.744Z,41.68
2016-08-26T12:50:03.043Z,41.96
2016-08-26T12:51:03.049Z,42.19
2016-08-26T12:52:03.054Z,42.09
2016-08-26T12:53:03.062Z,42.19
2016-08-26T12:54:03.071Z,42.15
2016-08-26T12:55:03.088Z,42.2